DAL0056 LEBL-LXGB
Flight info
| Callsign | DAL0056 |
|---|---|
| Flight time | 1h 42m |
| Altitude | 37000 |
| Route | LOTOS M985 MGA N869 PIMOS |
| Aircraft | A321/M-SDE3FGHIRWY/LB1 |
Departure
| Time | 2026-05-04 01:15 |
|---|---|
| Airport | Josep Tarradellas Barcelona-El Prat Airport (LEBL) |
Arrival
| Time | 2026-05-04 02:58 |
|---|---|
| Airport | Gibraltar Airport (LXGB) |
| Time | Latitude | Longitude | Altitude | Speed | Heading |
|---|---|---|---|---|---|
| 2026-05-04 00:57 | 41.29177 | 2.08011 | 19 ft | 0 kts | 155° |
| 2026-05-04 01:07 | 41.29193 | 2.08001 | 20 ft | 3 kts | 155° |
| 2026-05-04 01:07 | 41.29212 | 2.07990 | 20 ft | 3 kts | 155° |
| 2026-05-04 01:07 | 41.29230 | 2.07977 | 21 ft | 3 kts | 131° |
| 2026-05-04 01:07 | 41.29240 | 2.07954 | 20 ft | 3 kts | 89° |
| 2026-05-04 01:08 | 41.29236 | 2.07933 | 21 ft | 0 kts | 68° |
| 2026-05-04 01:09 | 41.29237 | 2.07934 | 21 ft | 1 kts | 68° |
| 2026-05-04 01:09 | 41.29246 | 2.07966 | 19 ft | 6 kts | 69° |
| 2026-05-04 01:09 | 41.29271 | 2.08039 | 19 ft | 10 kts | 65° |
| 2026-05-04 01:09 | 41.29300 | 2.08122 | 19 ft | 10 kts | 65° |
| 2026-05-04 01:10 | 41.29325 | 2.08201 | 19 ft | 9 kts | 68° |
| 2026-05-04 01:10 | 41.29351 | 2.08274 | 20 ft | 8 kts | 64° |
| 2026-05-04 01:10 | 41.29367 | 2.08345 | 19 ft | 8 kts | 87° |
| 2026-05-04 01:10 | 41.29340 | 2.08396 | 19 ft | 7 kts | 156° |
| 2026-05-04 01:11 | 41.29302 | 2.08417 | 20 ft | 6 kts | 156° |
| 2026-05-04 01:11 | 41.29246 | 2.08446 | 21 ft | 12 kts | 165° |
| 2026-05-04 01:11 | 41.29141 | 2.08418 | 20 ft | 18 kts | 200° |
| 2026-05-04 01:11 | 41.29021 | 2.08364 | 18 ft | 18 kts | 198° |
| 2026-05-04 01:12 | 41.28900 | 2.08309 | 18 ft | 18 kts | 198° |
| 2026-05-04 01:12 | 41.28777 | 2.08254 | 16 ft | 19 kts | 199° |
| 2026-05-04 01:12 | 41.28721 | 2.08233 | 18 ft | 5 kts | 188° |
| 2026-05-04 01:12 | 41.28699 | 2.08219 | 18 ft | 2 kts | 207° |
| 2026-05-04 01:13 | 41.28695 | 2.08221 | 17 ft | 0 kts | 171° |
| 2026-05-04 01:13 | 41.28694 | 2.08236 | 17 ft | 4 kts | 91° |
| 2026-05-04 01:13 | 41.28715 | 2.08302 | 18 ft | 11 kts | 66° |
| 2026-05-04 01:14 | 41.28748 | 2.08406 | 16 ft | 12 kts | 65° |
| 2026-05-04 01:14 | 41.28751 | 2.08416 | 18 ft | 0 kts | 66° |
| 2026-05-04 01:14 | 41.28755 | 2.08429 | 17 ft | 6 kts | 67° |
| 2026-05-04 01:15 | 41.28809 | 2.08495 | 18 ft | 17 kts | 21° |
| 2026-05-04 01:15 | 41.29156 | 2.08656 | 17 ft | 101 kts | 19° |
| 2026-05-04 01:15 | 41.30084 | 2.09074 | 62 ft | 173 kts | 18° |
| 2026-05-04 01:15 | 41.31265 | 2.09610 | 826 ft | 186 kts | 18° |
| 2026-05-04 01:16 | 41.32414 | 2.10381 | 1705 ft | 186 kts | 43° |
| 2026-05-04 01:16 | 41.32934 | 2.11972 | 2010 ft | 203 kts | 88° |
| 2026-05-04 01:16 | 41.32604 | 2.13859 | 2254 ft | 216 kts | 112° |
| 2026-05-04 01:16 | 41.31982 | 2.15709 | 2760 ft | 220 kts | 116° |
| 2026-05-04 01:17 | 41.31333 | 2.17554 | 3345 ft | 221 kts | 117° |
| 2026-05-04 01:17 | 41.30712 | 2.19429 | 3984 ft | 222 kts | 115° |
| 2026-05-04 01:17 | 41.30131 | 2.21327 | 4825 ft | 221 kts | 115° |
| 2026-05-04 01:17 | 41.29578 | 2.23250 | 5579 ft | 224 kts | 114° |
| 2026-05-04 01:18 | 41.29037 | 2.25205 | 6293 ft | 227 kts | 114° |
| 2026-05-04 01:18 | 41.28501 | 2.27202 | 6989 ft | 231 kts | 113° |
| 2026-05-04 01:18 | 41.27960 | 2.29261 | 7711 ft | 234 kts | 112° |
| 2026-05-04 01:18 | 41.27397 | 2.31274 | 8364 ft | 238 kts | 119° |
| 2026-05-04 01:19 | 41.26641 | 2.33349 | 8675 ft | 261 kts | 119° |
| 2026-05-04 01:19 | 41.25812 | 2.35612 | 8983 ft | 283 kts | 119° |
| 2026-05-04 01:19 | 41.24934 | 2.38013 | 9565 ft | 293 kts | 119° |
| 2026-05-04 01:19 | 41.24043 | 2.40471 | 10250 ft | 300 kts | 119° |
| 2026-05-04 01:20 | 41.23101 | 2.43054 | 10515 ft | 322 kts | 119° |
| 2026-05-04 01:20 | 41.22086 | 2.45831 | 10775 ft | 343 kts | 118° |
| 2026-05-04 01:20 | 41.21031 | 2.48727 | 11354 ft | 352 kts | 119° |
| 2026-05-04 01:20 | 41.19959 | 2.51668 | 12059 ft | 357 kts | 119° |
| 2026-05-04 01:21 | 41.18869 | 2.54657 | 12742 ft | 362 kts | 119° |
| 2026-05-04 01:21 | 41.17761 | 2.57682 | 13435 ft | 366 kts | 119° |
| 2026-05-04 01:21 | 41.16609 | 2.60707 | 14119 ft | 368 kts | 125° |
| 2026-05-04 01:21 | 41.15612 | 2.62520 | 14549 ft | 366 kts | 136° |
| 2026-05-04 01:22 | 41.13692 | 2.64683 | 15195 ft | 362 kts | 153° |
| 2026-05-04 01:22 | 41.11412 | 2.66029 | 15854 ft | 357 kts | 169° |
| 2026-05-04 01:22 | 41.08942 | 2.66493 | 16509 ft | 353 kts | 184° |
| 2026-05-04 01:22 | 41.06530 | 2.66274 | 17140 ft | 354 kts | 188° |
| 2026-05-04 01:23 | 41.04069 | 2.65999 | 17781 ft | 356 kts | 188° |
| 2026-05-04 01:23 | 41.01594 | 2.65727 | 18386 ft | 359 kts | 188° |
| 2026-05-04 01:23 | 40.99125 | 2.65236 | 18954 ft | 358 kts | 199° |
| 2026-05-04 01:23 | 40.96842 | 2.63951 | 19523 ft | 357 kts | 213° |
| 2026-05-04 01:24 | 40.94904 | 2.61912 | 20053 ft | 358 kts | 227° |
| 2026-05-04 01:24 | 40.93436 | 2.59255 | 20582 ft | 360 kts | 241° |
| 2026-05-04 01:24 | 40.92515 | 2.56163 | 21085 ft | 365 kts | 251° |
| 2026-05-04 01:24 | 40.91770 | 2.52941 | 21587 ft | 367 kts | 251° |
| 2026-05-04 01:25 | 40.91019 | 2.49702 | 22083 ft | 371 kts | 251° |
| 2026-05-04 01:25 | 40.90256 | 2.46431 | 22567 ft | 374 kts | 251° |
| 2026-05-04 01:25 | 40.89485 | 2.43136 | 23047 ft | 377 kts | 251° |
| 2026-05-04 01:25 | 40.88708 | 2.39821 | 23495 ft | 379 kts | 251° |
| 2026-05-04 01:26 | 40.87922 | 2.36479 | 23940 ft | 382 kts | 251° |
| 2026-05-04 01:26 | 40.87129 | 2.33120 | 24394 ft | 384 kts | 251° |
| 2026-05-04 01:26 | 40.86328 | 2.29738 | 24826 ft | 387 kts | 251° |
| 2026-05-04 01:26 | 40.85525 | 2.26342 | 25256 ft | 389 kts | 251° |
| 2026-05-04 01:27 | 40.84719 | 2.22924 | 25692 ft | 391 kts | 251° |
| 2026-05-04 01:27 | 40.83909 | 2.19490 | 26095 ft | 393 kts | 251° |
| 2026-05-04 01:27 | 40.83090 | 2.16030 | 26495 ft | 395 kts | 251° |
| 2026-05-04 01:27 | 40.82268 | 2.12560 | 26910 ft | 397 kts | 251° |
| 2026-05-04 01:28 | 40.81441 | 2.09071 | 27298 ft | 399 kts | 251° |
| 2026-05-04 01:28 | 40.80612 | 2.05571 | 27692 ft | 400 kts | 251° |
| 2026-05-04 01:28 | 40.79779 | 2.02052 | 28061 ft | 403 kts | 251° |
| 2026-05-04 01:28 | 40.78936 | 1.98522 | 28444 ft | 404 kts | 251° |
| 2026-05-04 01:29 | 40.78084 | 1.94983 | 28820 ft | 405 kts | 251° |
| 2026-05-04 01:29 | 40.77233 | 1.91437 | 29200 ft | 406 kts | 251° |
| 2026-05-04 01:29 | 40.76381 | 1.87882 | 29541 ft | 407 kts | 251° |
| 2026-05-04 01:29 | 40.75528 | 1.84315 | 29870 ft | 409 kts | 251° |
| 2026-05-04 01:30 | 40.74666 | 1.80736 | 30185 ft | 410 kts | 251° |
| 2026-05-04 01:30 | 40.73800 | 1.77139 | 30502 ft | 412 kts | 251° |
| 2026-05-04 01:30 | 40.72933 | 1.73543 | 30841 ft | 413 kts | 251° |
| 2026-05-04 01:30 | 40.72063 | 1.69936 | 31204 ft | 413 kts | 251° |
| 2026-05-04 01:31 | 40.71204 | 1.66388 | 31662 ft | 410 kts | 251° |
| 2026-05-04 01:31 | 40.70335 | 1.62828 | 32170 ft | 406 kts | 251° |
| 2026-05-04 01:31 | 40.69476 | 1.59296 | 32655 ft | 403 kts | 252° |
| 2026-05-04 01:31 | 40.68617 | 1.55749 | 33168 ft | 400 kts | 252° |
| 2026-05-04 01:32 | 40.67777 | 1.52279 | 33634 ft | 396 kts | 252° |
| 2026-05-04 01:32 | 40.66953 | 1.48881 | 34099 ft | 393 kts | 252° |
| 2026-05-04 01:32 | 40.66123 | 1.45467 | 34522 ft | 390 kts | 252° |
| 2026-05-04 01:32 | 40.65292 | 1.42074 | 34895 ft | 389 kts | 252° |
| 2026-05-04 01:33 | 40.64457 | 1.38691 | 35234 ft | 388 kts | 252° |
| 2026-05-04 01:33 | 40.63622 | 1.35315 | 35553 ft | 387 kts | 252° |
| 2026-05-04 01:33 | 40.62795 | 1.31947 | 35854 ft | 387 kts | 252° |
| 2026-05-04 01:33 | 40.61968 | 1.28572 | 36166 ft | 387 kts | 252° |
| 2026-05-04 01:34 | 40.61144 | 1.25205 | 36455 ft | 386 kts | 252° |
| 2026-05-04 01:34 | 40.60315 | 1.21842 | 36722 ft | 387 kts | 252° |
| 2026-05-04 01:34 | 40.59483 | 1.18478 | 36959 ft | 386 kts | 252° |
| 2026-05-04 01:35 | 40.57834 | 1.11826 | 37018 ft | 379 kts | 252° |
| 2026-05-04 01:35 | 40.56207 | 1.05284 | 37017 ft | 375 kts | 252° |
| 2026-05-04 01:36 | 40.53975 | 0.99069 | 37018 ft | 376 kts | 236° |
| 2026-05-04 01:36 | 40.50487 | 0.93898 | 37017 ft | 379 kts | 230° |
| 2026-05-04 01:37 | 40.46935 | 0.88842 | 37019 ft | 380 kts | 231° |
| 2026-05-04 01:37 | 40.43337 | 0.83716 | 37020 ft | 379 kts | 231° |
| 2026-05-04 01:38 | 40.39789 | 0.78652 | 37020 ft | 379 kts | 231° |
| 2026-05-04 01:38 | 40.36217 | 0.73574 | 37022 ft | 379 kts | 230° |
| 2026-05-04 01:39 | 40.32635 | 0.68512 | 37021 ft | 378 kts | 231° |
| 2026-05-04 01:39 | 40.29051 | 0.63455 | 37019 ft | 379 kts | 231° |
| 2026-05-04 01:40 | 40.25468 | 0.58399 | 37019 ft | 378 kts | 231° |
| 2026-05-04 01:40 | 40.21894 | 0.53347 | 37019 ft | 378 kts | 231° |
| 2026-05-04 01:41 | 40.18315 | 0.48299 | 37017 ft | 378 kts | 231° |
| 2026-05-04 01:41 | 40.14743 | 0.43256 | 37016 ft | 378 kts | 231° |
| 2026-05-04 01:42 | 40.11160 | 0.38234 | 37015 ft | 378 kts | 230° |
| 2026-05-04 01:42 | 40.07567 | 0.33229 | 37014 ft | 377 kts | 230° |
| 2026-05-04 01:43 | 40.03988 | 0.28226 | 37012 ft | 377 kts | 231° |
| 2026-05-04 01:43 | 40.00411 | 0.23215 | 37009 ft | 377 kts | 231° |
| 2026-05-04 01:44 | 39.96831 | 0.18230 | 37009 ft | 377 kts | 230° |
| 2026-05-04 01:44 | 39.93247 | 0.13249 | 37008 ft | 376 kts | 231° |
| 2026-05-04 01:45 | 39.89671 | 0.08279 | 37009 ft | 376 kts | 231° |
| 2026-05-04 01:45 | 39.84309 | 0.00823 | 37006 ft | 376 kts | 230° |
| 2026-05-04 01:46 | 39.80737 | -0.04134 | 37022 ft | 375 kts | 230° |
| 2026-05-04 01:46 | 39.77173 | -0.09059 | 37029 ft | 373 kts | 230° |
| 2026-05-04 01:47 | 39.73624 | -0.13942 | 37029 ft | 371 kts | 230° |
| 2026-05-04 01:47 | 39.70090 | -0.18807 | 37023 ft | 370 kts | 230° |
| 2026-05-04 01:48 | 39.66559 | -0.23663 | 37020 ft | 369 kts | 230° |
| 2026-05-04 01:48 | 39.63036 | -0.28510 | 37017 ft | 369 kts | 230° |
| 2026-05-04 01:49 | 39.59512 | -0.33347 | 37010 ft | 369 kts | 230° |
| 2026-05-04 01:49 | 39.55981 | -0.38184 | 37007 ft | 369 kts | 230° |
| 2026-05-04 01:50 | 39.52453 | -0.43002 | 37002 ft | 369 kts | 230° |
| 2026-05-04 01:50 | 39.48924 | -0.47814 | 36997 ft | 368 kts | 232° |
| 2026-05-04 01:51 | 39.45816 | -0.53034 | 36994 ft | 366 kts | 236° |
| 2026-05-04 01:51 | 39.42741 | -0.58287 | 36991 ft | 366 kts | 235° |
| 2026-05-04 01:52 | 39.39658 | -0.63517 | 36990 ft | 366 kts | 235° |
| 2026-05-04 01:52 | 39.37193 | -0.67693 | 36992 ft | 366 kts | 235° |
| 2026-05-04 01:53 | 39.34348 | -0.72526 | 36998 ft | 366 kts | 236° |
| 2026-05-04 01:53 | 39.31269 | -0.77756 | 37007 ft | 366 kts | 235° |
| 2026-05-04 01:54 | 39.28181 | -0.82989 | 37008 ft | 366 kts | 236° |
| 2026-05-04 01:54 | 39.25103 | -0.88207 | 37008 ft | 365 kts | 236° |
| 2026-05-04 01:55 | 39.22076 | -0.93331 | 37008 ft | 366 kts | 235° |
| 2026-05-04 01:55 | 39.18984 | -0.98542 | 37009 ft | 366 kts | 235° |
| 2026-05-04 01:56 | 39.15888 | -1.03749 | 37013 ft | 366 kts | 235° |
| 2026-05-04 01:56 | 39.12792 | -1.08948 | 37017 ft | 366 kts | 235° |
| 2026-05-04 01:57 | 39.09692 | -1.14144 | 37016 ft | 366 kts | 235° |
| 2026-05-04 01:57 | 39.06594 | -1.19338 | 37015 ft | 366 kts | 235° |
| 2026-05-04 01:58 | 39.03495 | -1.24522 | 37013 ft | 365 kts | 235° |
| 2026-05-04 01:58 | 39.00401 | -1.29701 | 37018 ft | 365 kts | 235° |
| 2026-05-04 01:59 | 38.97303 | -1.34871 | 37018 ft | 365 kts | 235° |
| 2026-05-04 01:59 | 38.94202 | -1.40033 | 37019 ft | 365 kts | 235° |
| 2026-05-04 02:00 | 38.91101 | -1.45180 | 37022 ft | 364 kts | 235° |
| 2026-05-04 02:00 | 38.88001 | -1.50325 | 37021 ft | 364 kts | 235° |
| 2026-05-04 02:01 | 38.84901 | -1.55469 | 37021 ft | 364 kts | 235° |
| 2026-05-04 02:01 | 38.81797 | -1.60610 | 37027 ft | 364 kts | 235° |
| 2026-05-04 02:02 | 38.78685 | -1.65732 | 37033 ft | 364 kts | 235° |
| 2026-05-04 02:02 | 38.75578 | -1.70851 | 37038 ft | 363 kts | 235° |
| 2026-05-04 02:03 | 38.72473 | -1.75956 | 37036 ft | 363 kts | 235° |
| 2026-05-04 02:03 | 38.69374 | -1.81056 | 37039 ft | 363 kts | 236° |
| 2026-05-04 02:04 | 38.66273 | -1.86154 | 37034 ft | 362 kts | 235° |
| 2026-05-04 02:04 | 38.63695 | -1.90376 | 37032 ft | 362 kts | 235° |
| 2026-05-04 02:05 | 38.60591 | -1.95446 | 37028 ft | 362 kts | 235° |
| 2026-05-04 02:05 | 38.57480 | -2.00511 | 37025 ft | 362 kts | 235° |
| 2026-05-04 02:06 | 38.54403 | -2.05528 | 37020 ft | 362 kts | 235° |
| 2026-05-04 02:06 | 38.51304 | -2.10591 | 37019 ft | 362 kts | 235° |
| 2026-05-04 02:07 | 38.48194 | -2.15645 | 37017 ft | 362 kts | 235° |
| 2026-05-04 02:07 | 38.45087 | -2.20687 | 37015 ft | 361 kts | 235° |
| 2026-05-04 02:08 | 38.41980 | -2.25717 | 37015 ft | 361 kts | 235° |
| 2026-05-04 02:08 | 38.38873 | -2.30744 | 37015 ft | 361 kts | 235° |
| 2026-05-04 02:09 | 38.35734 | -2.35732 | 37011 ft | 362 kts | 231° |
| 2026-05-04 02:09 | 38.32274 | -2.40405 | 37011 ft | 363 kts | 231° |
| 2026-05-04 02:10 | 38.28801 | -2.45065 | 37007 ft | 362 kts | 231° |
| 2026-05-04 02:10 | 38.25329 | -2.49715 | 37008 ft | 363 kts | 231° |
| 2026-05-04 02:11 | 38.21849 | -2.54371 | 37006 ft | 362 kts | 231° |
| 2026-05-04 02:11 | 38.18372 | -2.59020 | 37008 ft | 363 kts | 231° |
| 2026-05-04 02:12 | 38.14894 | -2.63672 | 37020 ft | 363 kts | 231° |
| 2026-05-04 02:12 | 38.11412 | -2.68316 | 37028 ft | 363 kts | 230° |
| 2026-05-04 02:13 | 38.07927 | -2.72955 | 37032 ft | 363 kts | 231° |
| 2026-05-04 02:13 | 38.04444 | -2.77592 | 37034 ft | 363 kts | 230° |
| 2026-05-04 02:14 | 38.00958 | -2.82218 | 37030 ft | 362 kts | 230° |
| 2026-05-04 02:14 | 37.97471 | -2.86839 | 37029 ft | 362 kts | 231° |
| 2026-05-04 02:15 | 37.93989 | -2.91442 | 37033 ft | 362 kts | 230° |
| 2026-05-04 02:15 | 37.90512 | -2.96045 | 37037 ft | 361 kts | 230° |
| 2026-05-04 02:16 | 37.87034 | -3.00642 | 37033 ft | 362 kts | 230° |
| 2026-05-04 02:16 | 37.83546 | -3.05244 | 37038 ft | 362 kts | 230° |
| 2026-05-04 02:17 | 37.80062 | -3.09834 | 37038 ft | 362 kts | 230° |
| 2026-05-04 02:17 | 37.76572 | -3.14422 | 37042 ft | 361 kts | 230° |
| 2026-05-04 02:18 | 37.73077 | -3.18993 | 37045 ft | 362 kts | 230° |
| 2026-05-04 02:18 | 37.69588 | -3.23567 | 37047 ft | 362 kts | 230° |
| 2026-05-04 02:19 | 37.66097 | -3.28143 | 37054 ft | 362 kts | 230° |
| 2026-05-04 02:19 | 37.62605 | -3.32707 | 37052 ft | 361 kts | 230° |
| 2026-05-04 02:20 | 37.59113 | -3.37260 | 37055 ft | 361 kts | 230° |
| 2026-05-04 02:20 | 37.55620 | -3.41806 | 37062 ft | 361 kts | 230° |
| 2026-05-04 02:21 | 37.52131 | -3.46337 | 37060 ft | 361 kts | 230° |
| 2026-05-04 02:21 | 37.48646 | -3.50876 | 37062 ft | 360 kts | 230° |
| 2026-05-04 02:22 | 37.45150 | -3.55406 | 37064 ft | 361 kts | 230° |
| 2026-05-04 02:22 | 37.41653 | -3.59936 | 37073 ft | 361 kts | 230° |
| 2026-05-04 02:23 | 37.38150 | -3.64469 | 37070 ft | 361 kts | 230° |
| 2026-05-04 02:23 | 37.34644 | -3.68992 | 37069 ft | 361 kts | 230° |
| 2026-05-04 02:24 | 37.31138 | -3.73522 | 37055 ft | 362 kts | 230° |
| 2026-05-04 02:24 | 37.27617 | -3.78063 | 37046 ft | 363 kts | 230° |
| 2026-05-04 02:25 | 37.24078 | -3.82610 | 37044 ft | 364 kts | 230° |
| 2026-05-04 02:25 | 37.20535 | -3.87156 | 37028 ft | 365 kts | 230° |
| 2026-05-04 02:26 | 37.16985 | -3.91711 | 36472 ft | 368 kts | 230° |
| 2026-05-04 02:26 | 37.15169 | -3.94037 | 35403 ft | 378 kts | 230° |
| 2026-05-04 02:26 | 37.13309 | -3.96417 | 34426 ft | 385 kts | 229° |
| 2026-05-04 02:27 | 37.11428 | -3.98826 | 33484 ft | 389 kts | 229° |
| 2026-05-04 02:27 | 37.09526 | -4.01263 | 32596 ft | 392 kts | 229° |
| 2026-05-04 02:27 | 37.07618 | -4.03701 | 31872 ft | 391 kts | 229° |
| 2026-05-04 02:27 | 37.05718 | -4.06126 | 31219 ft | 389 kts | 229° |
| 2026-05-04 02:28 | 37.03830 | -4.08529 | 30586 ft | 386 kts | 229° |
| 2026-05-04 02:28 | 37.01954 | -4.10913 | 29979 ft | 382 kts | 228° |
| 2026-05-04 02:28 | 37.00095 | -4.13272 | 29356 ft | 380 kts | 228° |
| 2026-05-04 02:28 | 36.98248 | -4.15618 | 28729 ft | 377 kts | 228° |
| 2026-05-04 02:29 | 36.96418 | -4.17946 | 28106 ft | 374 kts | 229° |
| 2026-05-04 02:29 | 36.94617 | -4.20235 | 27024 ft | 364 kts | 228° |
| 2026-05-04 02:29 | 36.92853 | -4.22474 | 25715 ft | 360 kts | 228° |
| 2026-05-04 02:29 | 36.91115 | -4.24678 | 24724 ft | 348 kts | 228° |
| 2026-05-04 02:30 | 36.89490 | -4.26736 | 24557 ft | 317 kts | 228° |
| 2026-05-04 02:30 | 36.87995 | -4.28627 | 24287 ft | 299 kts | 228° |
| 2026-05-04 02:30 | 36.86514 | -4.30510 | 23937 ft | 307 kts | 228° |
| 2026-05-04 02:30 | 36.85014 | -4.32418 | 23574 ft | 308 kts | 229° |
| 2026-05-04 02:31 | 36.83510 | -4.34331 | 23203 ft | 310 kts | 228° |
| 2026-05-04 02:31 | 36.81995 | -4.36235 | 22769 ft | 309 kts | 225° |
| 2026-05-04 02:31 | 36.80300 | -4.37866 | 22347 ft | 309 kts | 217° |
| 2026-05-04 02:31 | 36.78484 | -4.39291 | 21922 ft | 307 kts | 216° |
| 2026-05-04 02:32 | 36.76688 | -4.40713 | 21499 ft | 305 kts | 216° |
| 2026-05-04 02:32 | 36.74907 | -4.42133 | 21072 ft | 303 kts | 216° |
| 2026-05-04 02:32 | 36.73140 | -4.43543 | 20635 ft | 300 kts | 216° |
| 2026-05-04 02:32 | 36.71388 | -4.44940 | 20218 ft | 298 kts | 216° |
| 2026-05-04 02:33 | 36.69652 | -4.46324 | 19795 ft | 295 kts | 216° |
| 2026-05-04 02:33 | 36.67931 | -4.47695 | 19370 ft | 292 kts | 216° |
| 2026-05-04 02:33 | 36.66222 | -4.49053 | 18955 ft | 289 kts | 216° |
| 2026-05-04 02:33 | 36.64534 | -4.50389 | 18551 ft | 287 kts | 216° |
| 2026-05-04 02:34 | 36.62856 | -4.51717 | 18151 ft | 284 kts | 215° |
| 2026-05-04 02:34 | 36.61199 | -4.53030 | 17751 ft | 281 kts | 215° |
| 2026-05-04 02:34 | 36.59575 | -4.54316 | 17363 ft | 279 kts | 215° |
| 2026-05-04 02:34 | 36.57941 | -4.55611 | 16961 ft | 278 kts | 215° |
| 2026-05-04 02:35 | 36.56290 | -4.56914 | 16580 ft | 276 kts | 215° |
| 2026-05-04 02:35 | 36.54671 | -4.58192 | 16211 ft | 276 kts | 215° |
| 2026-05-04 02:35 | 36.53077 | -4.59453 | 15845 ft | 275 kts | 215° |
| 2026-05-04 02:35 | 36.51446 | -4.60745 | 15463 ft | 274 kts | 215° |
| 2026-05-04 02:36 | 36.49840 | -4.62013 | 15090 ft | 273 kts | 215° |
| 2026-05-04 02:36 | 36.48239 | -4.63274 | 14716 ft | 272 kts | 215° |
| 2026-05-04 02:36 | 36.46642 | -4.64532 | 14338 ft | 272 kts | 215° |
| 2026-05-04 02:36 | 36.45048 | -4.65790 | 13966 ft | 271 kts | 215° |
| 2026-05-04 02:37 | 36.43460 | -4.67037 | 13594 ft | 269 kts | 215° |
| 2026-05-04 02:37 | 36.41873 | -4.68286 | 13223 ft | 269 kts | 215° |
| 2026-05-04 02:37 | 36.40293 | -4.69532 | 12838 ft | 269 kts | 215° |
| 2026-05-04 02:37 | 36.38717 | -4.70776 | 12454 ft | 268 kts | 215° |
| 2026-05-04 02:38 | 36.37147 | -4.72014 | 12072 ft | 267 kts | 215° |
| 2026-05-04 02:38 | 36.35584 | -4.73245 | 11697 ft | 265 kts | 215° |
| 2026-05-04 02:38 | 36.34029 | -4.74471 | 11320 ft | 265 kts | 215° |
| 2026-05-04 02:38 | 36.32466 | -4.75701 | 10930 ft | 267 kts | 215° |
| 2026-05-04 02:39 | 36.30898 | -4.76933 | 10551 ft | 267 kts | 214° |
| 2026-05-04 02:39 | 36.29329 | -4.78159 | 10261 ft | 265 kts | 214° |
| 2026-05-04 02:39 | 36.27753 | -4.79389 | 10190 ft | 269 kts | 214° |
| 2026-05-04 02:39 | 36.26165 | -4.80629 | 10087 ft | 270 kts | 214° |
| 2026-05-04 02:40 | 36.24573 | -4.81872 | 9908 ft | 272 kts | 214° |
| 2026-05-04 02:40 | 36.22967 | -4.83128 | 9463 ft | 273 kts | 214° |
| 2026-05-04 02:40 | 36.21367 | -4.84380 | 9060 ft | 271 kts | 214° |
| 2026-05-04 02:40 | 36.19773 | -4.85629 | 8668 ft | 272 kts | 214° |
| 2026-05-04 02:41 | 36.18177 | -4.86879 | 8282 ft | 271 kts | 214° |
| 2026-05-04 02:41 | 36.16645 | -4.88208 | 7891 ft | 267 kts | 225° |
| 2026-05-04 02:41 | 36.15563 | -4.90030 | 7504 ft | 263 kts | 245° |
| 2026-05-04 02:41 | 36.15097 | -4.92192 | 7132 ft | 260 kts | 265° |
| 2026-05-04 02:42 | 36.15113 | -4.94420 | 6761 ft | 259 kts | 270° |
| 2026-05-04 02:42 | 36.15149 | -4.96638 | 6387 ft | 257 kts | 270° |
| 2026-05-04 02:42 | 36.15180 | -4.98839 | 6017 ft | 255 kts | 270° |
| 2026-05-04 02:42 | 36.15211 | -5.01024 | 5584 ft | 255 kts | 270° |
| 2026-05-04 02:43 | 36.15241 | -5.03216 | 5190 ft | 254 kts | 270° |
| 2026-05-04 02:43 | 36.15270 | -5.05390 | 4812 ft | 252 kts | 270° |
| 2026-05-04 02:43 | 36.15299 | -5.07552 | 4447 ft | 250 kts | 270° |
| 2026-05-04 02:43 | 36.15327 | -5.09694 | 4089 ft | 248 kts | 270° |
| 2026-05-04 02:44 | 36.15352 | -5.11783 | 3734 ft | 245 kts | 270° |
| 2026-05-04 02:44 | 36.15377 | -5.13884 | 3377 ft | 243 kts | 271° |
| 2026-05-04 02:44 | 36.15432 | -5.15971 | 3014 ft | 242 kts | 272° |
| 2026-05-04 02:44 | 36.15485 | -5.18040 | 2673 ft | 240 kts | 271° |
| 2026-05-04 02:45 | 36.15505 | -5.20096 | 2321 ft | 239 kts | 270° |
| 2026-05-04 02:45 | 36.15492 | -5.22150 | 1980 ft | 238 kts | 269° |
| 2026-05-04 02:45 | 36.15456 | -5.24202 | 1635 ft | 238 kts | 268° |
| 2026-05-04 02:45 | 36.15402 | -5.26245 | 1295 ft | 238 kts | 267° |
| 2026-05-04 02:46 | 36.15340 | -5.28288 | 953 ft | 237 kts | 267° |
| 2026-05-04 02:46 | 36.15274 | -5.30328 | 641 ft | 236 kts | 267° |
| 2026-05-04 02:46 | 36.15204 | -5.32280 | 465 ft | 215 kts | 267° |
| 2026-05-04 02:46 | 36.15150 | -5.33988 | 191 ft | 179 kts | 268° |
| 2026-05-04 02:47 | 36.15113 | -5.35376 | 63 ft | 149 kts | 267° |
| 2026-05-04 02:47 | 36.15065 | -5.36808 | 343 ft | 179 kts | 267° |
| 2026-05-04 02:47 | 36.15023 | -5.37904 | 642 ft | 201 kts | 266° |
| 2026-05-04 02:47 | 36.14912 | -5.40381 | 1457 ft | 226 kts | 265° |
| 2026-05-04 02:48 | 36.14776 | -5.41638 | 2195 ft | 220 kts | 259° |
| 2026-05-04 02:48 | 36.14123 | -5.43310 | 3239 ft | 219 kts | 230° |
| 2026-05-04 02:48 | 36.12797 | -5.44233 | 4072 ft | 225 kts | 195° |
| 2026-05-04 02:48 | 36.11188 | -5.44098 | 4680 ft | 249 kts | 164° |
| 2026-05-04 02:49 | 36.09690 | -5.42901 | 5389 ft | 267 kts | 137° |
| 2026-05-04 02:49 | 36.08705 | -5.40902 | 6198 ft | 280 kts | 110° |
| 2026-05-04 02:49 | 36.08328 | -5.38484 | 6832 ft | 294 kts | 100° |
| 2026-05-04 02:49 | 36.08117 | -5.35956 | 6962 ft | 297 kts | 95° |
| 2026-05-04 02:50 | 36.08121 | -5.33373 | 6911 ft | 297 kts | 89° |
| 2026-05-04 02:50 | 36.08278 | -5.30830 | 6960 ft | 297 kts | 85° |
| 2026-05-04 02:50 | 36.08548 | -5.28291 | 6999 ft | 298 kts | 82° |
| 2026-05-04 02:50 | 36.08899 | -5.25772 | 7049 ft | 298 kts | 81° |
| 2026-05-04 02:51 | 36.09305 | -5.23261 | 7123 ft | 298 kts | 79° |
| 2026-05-04 02:51 | 36.09776 | -5.20753 | 6867 ft | 298 kts | 77° |
| 2026-05-04 02:51 | 36.10301 | -5.18323 | 6509 ft | 295 kts | 75° |
| 2026-05-04 02:51 | 36.10893 | -5.15913 | 6157 ft | 291 kts | 72° |
| 2026-05-04 02:52 | 36.11538 | -5.13564 | 5820 ft | 287 kts | 70° |
| 2026-05-04 02:52 | 36.12231 | -5.11300 | 5430 ft | 274 kts | 68° |
| 2026-05-04 02:52 | 36.12956 | -5.09180 | 5011 ft | 261 kts | 65° |
| 2026-05-04 02:52 | 36.13938 | -5.07379 | 4506 ft | 249 kts | 37° |
| 2026-05-04 02:53 | 36.15481 | -5.06718 | 3848 ft | 233 kts | 348° |
| 2026-05-04 02:53 | 36.16839 | -5.07606 | 3109 ft | 222 kts | 302° |
| 2026-05-04 02:53 | 36.17260 | -5.09380 | 2421 ft | 218 kts | 268° |
| 2026-05-04 02:53 | 36.16999 | -5.11187 | 1978 ft | 210 kts | 254° |
| 2026-05-04 02:54 | 36.16516 | -5.12872 | 1807 ft | 201 kts | 247° |
| 2026-05-04 02:54 | 36.15917 | -5.14378 | 1670 ft | 190 kts | 246° |
| 2026-05-04 02:54 | 36.15619 | -5.15943 | 1443 ft | 186 kts | 263° |
| 2026-05-04 02:54 | 36.15531 | -5.17522 | 1229 ft | 182 kts | 268° |
| 2026-05-04 02:55 | 36.15597 | -5.20695 | 1292 ft | 173 kts | 273° |
| 2026-05-04 02:55 | 36.15636 | -5.22038 | 1454 ft | 147 kts | 268° |
| 2026-05-04 02:55 | 36.15572 | -5.23263 | 1431 ft | 139 kts | 263° |
| 2026-05-04 02:56 | 36.15479 | -5.24434 | 1377 ft | 136 kts | 264° |
| 2026-05-04 02:56 | 36.15414 | -5.25592 | 1297 ft | 135 kts | 266° |
| 2026-05-04 02:56 | 36.15399 | -5.26746 | 1195 ft | 134 kts | 270° |
| 2026-05-04 02:56 | 36.15415 | -5.27895 | 1089 ft | 133 kts | 268° |
| 2026-05-04 02:57 | 36.15403 | -5.29043 | 943 ft | 133 kts | 266° |
| 2026-05-04 02:57 | 36.15315 | -5.30182 | 788 ft | 133 kts | 262° |
| 2026-05-04 02:57 | 36.15221 | -5.31317 | 555 ft | 133 kts | 266° |
| 2026-05-04 02:57 | 36.15204 | -5.32457 | 316 ft | 132 kts | 268° |
| 2026-05-04 02:58 | 36.15185 | -5.33595 | 141 ft | 132 kts | 265° |
| 2026-05-04 02:58 | 36.15133 | -5.34717 | 29 ft | 124 kts | 262° |
| 2026-05-04 02:58 | 36.15105 | -5.35433 | 23 ft | 25 kts | 268° |
| 2026-05-04 02:58 | 36.15100 | -5.35637 | 19 ft | 30 kts | 269° |
| 2026-05-04 02:59 | 36.15093 | -5.35811 | 18 ft | 16 kts | 257° |
| 2026-05-04 02:59 | 36.15085 | -5.35939 | 17 ft | 11 kts | 340° |
| 2026-05-04 02:59 | 36.15109 | -5.35840 | 17 ft | 20 kts | 116° |
| 2026-05-04 02:59 | 36.15095 | -5.35638 | 19 ft | 25 kts | 85° |
| 2026-05-04 03:00 | 36.15106 | -5.35435 | 23 ft | 23 kts | 86° |
| 2026-05-04 03:00 | 36.15114 | -5.35237 | 24 ft | 23 kts | 87° |
| 2026-05-04 03:00 | 36.15120 | -5.35038 | 24 ft | 23 kts | 88° |
| 2026-05-04 03:00 | 36.15126 | -5.34839 | 24 ft | 22 kts | 88° |
| 2026-05-04 03:01 | 36.15159 | -5.34691 | 23 ft | 7 kts | 26° |
| 2026-05-04 03:01 | 36.15164 | -5.34690 | 21 ft | 3 kts | 18° |
| 2026-05-04 03:01 | 36.15207 | -5.34670 | 22 ft | 7 kts | 30° |
| 2026-05-04 03:01 | 36.15228 | -5.34614 | 20 ft | 8 kts | 82° |
| 2026-05-04 03:02 | 36.15260 | -5.34572 | 17 ft | 6 kts | 357° |
| 2026-05-04 03:02 | 36.15298 | -5.34576 | 17 ft | 5 kts | 356° |
| 2026-05-04 03:02 | 36.15307 | -5.34577 | 17 ft | 0 kts | 357° |